sensor_id;sensor_type;location;lat;lon;timestamp;temperature;humidity
20208;DHT22;10263;48.716;8.760;2022-12-07T00:01:24;3.60;99.90
20208;DHT22;10263;48.716;8.760;2022-12-07T00:03:53;3.70;99.90
20208;DHT22;10263;48.716;8.760;2022-12-07T00:06:22;3.70;99.90
20208;DHT22;10263;48.716;8.760;2022-12-07T00:08:50;3.60;99.90
20208;DHT22;10263;48.716;8.760;2022-12-07T00:11:19;3.70;99.90
20208;DHT22;10263;48.716;8.760;2022-12-07T00:13:46;3.70;99.90
20208;DHT22;10263;48.716;8.760;2022-12-07T00:16:15;3.60;99.90
20208;DHT22;10263;48.716;8.760;2022-12-07T00:21:11;3.60;99.90
20208;DHT22;10263;48.716;8.760;2022-12-07T00:23:38;3.60;99.90
20208;DHT22;10263;48.716;8.760;2022-12-07T00:26:08;3.60;99.90
20208;DHT22;10263;48.716;8.760;2022-12-07T00:28:35;3.60;99.90
20208;DHT22;10263;48.716;8.760;2022-12-07T00:31:03;3.60;99.90
20208;DHT22;10263;48.716;8.760;2022-12-07T00:33:31;3.60;99.90
20208;DHT22;10263;48.716;8.760;2022-12-07T00:35:59;3.60;99.90
20208;DHT22;10263;48.716;8.760;2022-12-07T00:38:28;3.60;99.90
20208;DHT22;10263;48.716;8.760;2022-12-07T00:40:56;3.60;99.90
20208;DHT22;10263;48.716;8.760;2022-12-07T00:43:25;3.70;99.90
20208;DHT22;10263;48.716;8.760;2022-12-07T00:48:19;3.70;99.90
20208;DHT22;10263;48.716;8.760;2022-12-07T01:00:38;3.70;99.90
20208;DHT22;10263;48.716;8.760;2022-12-07T01:03:08;3.60;99.90
20208;DHT22;10263;48.716;8.760;2022-12-07T01:10:29;3.60;99.90
20208;DHT22;10263;48.716;8.760;2022-12-07T01:15:24;5.00;99.90
20208;DHT22;10263;48.716;8.760;2022-12-07T01:17:53;3.60;99.90
20208;DHT22;10263;48.716;8.760;2022-12-07T01:20:20;3.60;99.90
20208;DHT22;10263;48.716;8.760;2022-12-07T01:25:14;3.60;99.90
20208;DHT22;10263;48.716;8.760;2022-12-07T01:30:11;3.60;99.90
20208;DHT22;10263;48.716;8.760;2022-12-07T01:35:07;3.60;99.90
20208;DHT22;10263;48.716;8.760;2022-12-07T01:37:35;3.60;99.90
20208;DHT22;10263;48.716;8.760;2022-12-07T01:40:03;3.60;99.90
20208;DHT22;10263;48.716;8.760;2022-12-07T01:48:12;3.60;99.90
20208;DHT22;10263;48.716;8.760;2022-12-07T01:50:43;3.50;99.90
20208;DHT22;10263;48.716;8.760;2022-12-07T01:53:11;3.60;99.90
20208;DHT22;10263;48.716;8.760;2022-12-07T01:55:41;3.60;99.90
20208;DHT22;10263;48.716;8.760;2022-12-07T01:58:09;3.60;99.90
20208;DHT22;10263;48.716;8.760;2022-12-07T02:03:07;3.60;99.90
20208;DHT22;10263;48.716;8.760;2022-12-07T02:05:37;3.50;99.90
20208;DHT22;10263;48.716;8.760;2022-12-07T02:08:06;3.50;99.90
20208;DHT22;10263;48.716;8.760;2022-12-07T02:13:04;3.50;99.90
20208;DHT22;10263;48.716;8.760;2022-12-07T02:15:44;3.50;99.90
20208;DHT22;10263;48.716;8.760;2022-12-07T02:18:16;3.50;99.90
20208;DHT22;10263;48.716;8.760;2022-12-07T02:20:54;3.50;99.90
20208;DHT22;10263;48.716;8.760;2022-12-07T02:24:03;3.40;99.90
20208;DHT22;10263;48.716;8.760;2022-12-07T02:26:49;3.40;99.90
20208;DHT22;10263;48.716;8.760;2022-12-07T02:29:25;3.40;99.90
20208;DHT22;10263;48.716;8.760;2022-12-07T02:31:59;3.40;99.90
20208;DHT22;10263;48.716;8.760;2022-12-07T02:34:34;3.40;99.90
20208;DHT22;10263;48.716;8.760;2022-12-07T02:37:14;3.40;99.90
20208;DHT22;10263;48.716;8.760;2022-12-07T02:39:48;3.40;99.90
20208;DHT22;10263;48.716;8.760;2022-12-07T02:42:20;3.40;99.90
20208;DHT22;10263;48.716;8.760;2022-12-07T02:44:52;3.40;99.90
20208;DHT22;10263;48.716;8.760;2022-12-07T02:47:20;3.40;99.90
20208;DHT22;10263;48.716;8.760;2022-12-07T02:49:49;3.40;99.90
20208;DHT22;10263;48.716;8.760;2022-12-07T02:52:17;3.40;99.90
20208;DHT22;10263;48.716;8.760;2022-12-07T02:57:26;3.40;99.90
20208;DHT22;10263;48.716;8.760;2022-12-07T03:00:03;3.40;99.90
20208;DHT22;10263;48.716;8.760;2022-12-07T03:02:42;3.40;99.90
20208;DHT22;10263;48.716;8.760;2022-12-07T03:05:23;3.30;99.90
20208;DHT22;10263;48.716;8.760;2022-12-07T03:07:58;3.40;99.90
20208;DHT22;10263;48.716;8.760;2022-12-07T03:10:31;3.30;99.90
20208;DHT22;10263;48.716;8.760;2022-12-07T03:13:04;3.40;99.90
20208;DHT22;10263;48.716;8.760;2022-12-07T03:15:40;5.50;99.90
20208;DHT22;10263;48.716;8.760;2022-12-07T03:18:09;3.20;99.90
20208;DHT22;10263;48.716;8.760;2022-12-07T03:20:39;3.30;99.90
20208;DHT22;10263;48.716;8.760;2022-12-07T03:23:09;3.30;99.90
20208;DHT22;10263;48.716;8.760;2022-12-07T03:25:40;3.20;99.90
20208;DHT22;10263;48.716;8.760;2022-12-07T03:28:10;3.20;99.90
20208;DHT22;10263;48.716;8.760;2022-12-07T03:30:45;3.20;99.90
20208;DHT22;10263;48.716;8.760;2022-12-07T03:33:17;3.20;99.90
20208;DHT22;10263;48.716;8.760;2022-12-07T03:35:50;3.20;99.90
20208;DHT22;10263;48.716;8.760;2022-12-07T03:38:23;3.20;99.90
20208;DHT22;10263;48.716;8.760;2022-12-07T03:40:55;3.20;99.90
20208;DHT22;10263;48.716;8.760;2022-12-07T03:46:01;3.20;99.90
20208;DHT22;10263;48.716;8.760;2022-12-07T03:48:33;3.20;99.90
20208;DHT22;10263;48.716;8.760;2022-12-07T03:51:06;3.10;99.90
20208;DHT22;10263;48.716;8.760;2022-12-07T03:53:40;3.10;99.90
20208;DHT22;10263;48.716;8.760;2022-12-07T03:56:09;3.10;99.90
20208;DHT22;10263;48.716;8.760;2022-12-07T03:58:38;3.20;99.90
20208;DHT22;10263;48.716;8.760;2022-12-07T04:01:07;3.20;99.90
20208;DHT22;10263;48.716;8.760;2022-12-07T04:10:56;3.20;99.90
20208;DHT22;10263;48.716;8.760;2022-12-07T04:18:18;3.10;99.90
20208;DHT22;10263;48.716;8.760;2022-12-07T04:20:46;3.10;99.90
20208;DHT22;10263;48.716;8.760;2022-12-07T04:23:12;3.10;99.90
20208;DHT22;10263;48.716;8.760;2022-12-07T04:25:40;3.10;99.90
20208;DHT22;10263;48.716;8.760;2022-12-07T04:35:30;3.00;99.90
20208;DHT22;10263;48.716;8.760;2022-12-07T04:40:24;2.80;99.90
20208;DHT22;10263;48.716;8.760;2022-12-07T04:45:18;2.50;99.90
20208;DHT22;10263;48.716;8.760;2022-12-07T04:52:40;2.30;99.90
20208;DHT22;10263;48.716;8.760;2022-12-07T04:55:07;2.20;99.90
20208;DHT22;10263;48.716;8.760;2022-12-07T05:00:02;2.20;99.90
20208;DHT22;10263;48.716;8.760;2022-12-07T05:09:51;2.00;99.90
20208;DHT22;10263;48.716;8.760;2022-12-07T05:17:12;1.90;99.90
20208;DHT22;10263;48.716;8.760;2022-12-07T05:22:07;1.80;99.90
20208;DHT22;10263;48.716;8.760;2022-12-07T05:27:02;1.80;99.90
20208;DHT22;10263;48.716;8.760;2022-12-07T05:44:31;1.70;99.90
20208;DHT22;10263;48.716;8.760;2022-12-07T05:49:25;1.70;99.90
20208;DHT22;10263;48.716;8.760;2022-12-07T06:01:51;1.70;99.90
20208;DHT22;10263;48.716;8.760;2022-12-07T06:04:19;1.70;99.90
20208;DHT22;10263;48.716;8.760;2022-12-07T06:14:26;1.70;99.90
20208;DHT22;10263;48.716;8.760;2022-12-07T06:16:54;1.60;99.90
20208;DHT22;10263;48.716;8.760;2022-12-07T06:24:16;1.80;99.90
20208;DHT22;10263;48.716;8.760;2022-12-07T06:29:11;1.80;99.90
20208;DHT22;10263;48.716;8.760;2022-12-07T06:34:10;1.80;99.90
20208;DHT22;10263;48.716;8.760;2022-12-07T06:39:05;1.80;99.90
20208;DHT22;10263;48.716;8.760;2022-12-07T06:48:54;1.80;99.90
20208;DHT22;10263;48.716;8.760;2022-12-07T06:51:23;1.80;99.90
20208;DHT22;10263;48.716;8.760;2022-12-07T06:53:50;1.80;99.90
20208;DHT22;10263;48.716;8.760;2022-12-07T06:58:44;1.80;99.90
20208;DHT22;10263;48.716;8.760;2022-12-07T07:01:11;1.80;99.90
20208;DHT22;10263;48.716;8.760;2022-12-07T07:03:39;1.80;99.90
20208;DHT22;10263;48.716;8.760;2022-12-07T07:06:07;1.90;99.90
20208;DHT22;10263;48.716;8.760;2022-12-07T07:08:35;1.90;99.90
20208;DHT22;10263;48.716;8.760;2022-12-07T07:13:30;1.90;99.90
20208;DHT22;10263;48.716;8.760;2022-12-07T07:15:57;1.90;99.90
20208;DHT22;10263;48.716;8.760;2022-12-07T07:18:24;2.00;99.90
20208;DHT22;10263;48.716;8.760;2022-12-07T07:23:19;2.00;99.90
20208;DHT22;10263;48.716;8.760;2022-12-07T07:25:47;2.00;99.90
20208;DHT22;10263;48.716;8.760;2022-12-07T07:28:15;2.10;99.90
20208;DHT22;10263;48.716;8.760;2022-12-07T07:30:42;2.10;99.90
20208;DHT22;10263;48.716;8.760;2022-12-07T07:33:09;2.10;99.90
20208;DHT22;10263;48.716;8.760;2022-12-07T07:35:37;2.10;99.90
20208;DHT22;10263;48.716;8.760;2022-12-07T07:38:04;2.10;99.90
20208;DHT22;10263;48.716;8.760;2022-12-07T07:42:59;2.10;99.90
20208;DHT22;10263;48.716;8.760;2022-12-07T07:45:27;2.10;99.90
20208;DHT22;10263;48.716;8.760;2022-12-07T07:50:22;2.10;99.90
20208;DHT22;10263;48.716;8.760;2022-12-07T07:55:16;-1.40;99.90
20208;DHT22;10263;48.716;8.760;2022-12-07T08:00:13;2.00;99.90
20208;DHT22;10263;48.716;8.760;2022-12-07T08:05:08;2.10;99.90
20208;DHT22;10263;48.716;8.760;2022-12-07T08:10:03;2.10;99.90
20208;DHT22;10263;48.716;8.760;2022-12-07T08:12:30;2.10;99.90
20208;DHT22;10263;48.716;8.760;2022-12-07T08:17:25;2.20;99.90
20208;DHT22;10263;48.716;8.760;2022-12-07T08:19:52;2.20;99.90
20208;DHT22;10263;48.716;8.760;2022-12-07T08:22:19;2.20;99.90
20208;DHT22;10263;48.716;8.760;2022-12-07T08:27:13;2.30;99.90
20208;DHT22;10263;48.716;8.760;2022-12-07T08:29:40;2.30;99.90
20208;DHT22;10263;48.716;8.760;2022-12-07T08:34:36;4.70;99.90
20208;DHT22;10263;48.716;8.760;2022-12-07T08:39:30;2.40;99.90
20208;DHT22;10263;48.716;8.760;2022-12-07T08:44:24;2.40;99.90
20208;DHT22;10263;48.716;8.760;2022-12-07T08:46:53;2.40;99.90
20208;DHT22;10263;48.716;8.760;2022-12-07T08:49:24;2.40;99.90
20208;DHT22;10263;48.716;8.760;2022-12-07T08:51:54;2.40;99.90
20208;DHT22;10263;48.716;8.760;2022-12-07T08:56:49;2.40;99.90
20208;DHT22;10263;48.716;8.760;2022-12-07T08:59:18;2.40;99.90
20208;DHT22;10263;48.716;8.760;2022-12-07T09:01:45;2.50;99.90
20208;DHT22;10263;48.716;8.760;2022-12-07T09:04:12;2.50;99.90
20208;DHT22;10263;48.716;8.760;2022-12-07T09:06:40;2.50;99.90
20208;DHT22;10263;48.716;8.760;2022-12-07T09:09:09;2.50;99.90
20208;DHT22;10263;48.716;8.760;2022-12-07T09:11:36;2.50;99.90
20208;DHT22;10263;48.716;8.760;2022-12-07T09:14:04;2.60;99.90
20208;DHT22;10263;48.716;8.760;2022-12-07T09:18:58;2.70;99.90
20208;DHT22;10263;48.716;8.760;2022-12-07T09:23:52;2.80;99.90
20208;DHT22;10263;48.716;8.760;2022-12-07T09:26:20;2.90;99.90
20208;DHT22;10263;48.716;8.760;2022-12-07T09:28:47;3.00;99.90
20208;DHT22;10263;48.716;8.760;2022-12-07T09:31:14;2.90;99.90
20208;DHT22;10263;48.716;8.760;2022-12-07T09:33:41;3.00;99.90
20208;DHT22;10263;48.716;8.760;2022-12-07T09:36:08;3.10;99.90
20208;DHT22;10263;48.716;8.760;2022-12-07T09:41:05;3.20;99.90
20208;DHT22;10263;48.716;8.760;2022-12-07T09:43:35;3.20;99.90
20208;DHT22;10263;48.716;8.760;2022-12-07T09:48:33;3.30;99.90
20208;DHT22;10263;48.716;8.760;2022-12-07T09:51:02;3.40;99.90
20208;DHT22;10263;48.716;8.760;2022-12-07T09:53:34;3.50;99.90
20208;DHT22;10263;48.716;8.760;2022-12-07T09:56:03;3.50;99.90
20208;DHT22;10263;48.716;8.760;2022-12-07T09:58:31;3.60;99.90
20208;DHT22;10263;48.716;8.760;2022-12-07T10:01:05;3.60;99.90
20208;DHT22;10263;48.716;8.760;2022-12-07T10:03:36;3.60;99.90
20208;DHT22;10263;48.716;8.760;2022-12-07T10:06:04;3.70;99.90
20208;DHT22;10263;48.716;8.760;2022-12-07T10:08:32;3.80;99.90
20208;DHT22;10263;48.716;8.760;2022-12-07T10:11:01;3.80;99.90
20208;DHT22;10263;48.716;8.760;2022-12-07T10:13:34;3.90;99.90
20208;DHT22;10263;48.716;8.760;2022-12-07T10:16:04;3.90;99.90
20208;DHT22;10263;48.716;8.760;2022-12-07T10:18:32;3.90;99.90
20208;DHT22;10263;48.716;8.760;2022-12-07T10:21:13;4.00;99.90
20208;DHT22;10263;48.716;8.760;2022-12-07T10:23:42;4.10;99.90
20208;DHT22;10263;48.716;8.760;2022-12-07T10:26:31;4.10;99.90
20208;DHT22;10263;48.716;8.760;2022-12-07T10:29:12;4.20;99.90
20208;DHT22;10263;48.716;8.760;2022-12-07T10:31:42;4.30;99.90
20208;DHT22;10263;48.716;8.760;2022-12-07T10:34:21;4.40;99.90
20208;DHT22;10263;48.716;8.760;2022-12-07T10:36:50;4.40;99.90
20208;DHT22;10263;48.716;8.760;2022-12-07T10:39:20;4.50;99.90
20208;DHT22;10263;48.716;8.760;2022-12-07T10:41:54;4.60;99.90
20208;DHT22;10263;48.716;8.760;2022-12-07T10:44:24;4.60;99.90
20208;DHT22;10263;48.716;8.760;2022-12-07T10:47:08;4.70;99.90
20208;DHT22;10263;48.716;8.760;2022-12-07T10:49:49;4.70;99.90
20208;DHT22;10263;48.716;8.760;2022-12-07T10:52:32;4.70;99.90
20208;DHT22;10263;48.716;8.760;2022-12-07T10:55:12;3.20;99.90
20208;DHT22;10263;48.716;8.760;2022-12-07T10:57:51;4.80;99.90
20208;DHT22;10263;48.716;8.760;2022-12-07T11:00:24;4.90;99.90
20208;DHT22;10263;48.716;8.760;2022-12-07T11:03:24;4.90;99.90
20208;DHT22;10263;48.716;8.760;2022-12-07T11:06:03;5.00;99.90
20208;DHT22;10263;48.716;8.760;2022-12-07T11:08:50;5.00;99.90
20208;DHT22;10263;48.716;8.760;2022-12-07T11:11:25;5.10;99.90
20208;DHT22;10263;48.716;8.760;2022-12-07T11:14:01;5.10;99.90
20208;DHT22;10263;48.716;8.760;2022-12-07T11:16:49;5.20;99.90
20208;DHT22;10263;48.716;8.760;2022-12-07T11:19:33;5.10;99.90
20208;DHT22;10263;48.716;8.760;2022-12-07T11:22:06;5.10;99.90
20208;DHT22;10263;48.716;8.760;2022-12-07T11:24:42;5.00;99.90
20208;DHT22;10263;48.716;8.760;2022-12-07T11:27:19;4.90;99.90
20208;DHT22;10263;48.716;8.760;2022-12-07T11:30:01;4.90;99.90
20208;DHT22;10263;48.716;8.760;2022-12-07T11:32:43;5.00;99.90
20208;DHT22;10263;48.716;8.760;2022-12-07T11:35:22;5.10;99.90
20208;DHT22;10263;48.716;8.760;2022-12-07T11:37:54;5.10;99.90
20208;DHT22;10263;48.716;8.760;2022-12-07T11:40:26;5.00;99.90
20208;DHT22;10263;48.716;8.760;2022-12-07T11:42:58;5.10;99.90
20208;DHT22;10263;48.716;8.760;2022-12-07T11:45:27;5.10;99.90
20208;DHT22;10263;48.716;8.760;2022-12-07T11:47:59;5.10;99.90
20208;DHT22;10263;48.716;8.760;2022-12-07T11:50:33;5.10;99.90
20208;DHT22;10263;48.716;8.760;2022-12-07T11:53:04;5.10;99.90
20208;DHT22;10263;48.716;8.760;2022-12-07T11:55:42;5.00;99.90
20208;DHT22;10263;48.716;8.760;2022-12-07T11:58:22;5.00;99.90
20208;DHT22;10263;48.716;8.760;2022-12-07T12:00:52;5.00;99.90
20208;DHT22;10263;48.716;8.760;2022-12-07T12:03:25;4.90;99.90
20208;DHT22;10263;48.716;8.760;2022-12-07T12:05:58;4.90;99.90
20208;DHT22;10263;48.716;8.760;2022-12-07T12:08:29;4.70;99.90
20208;DHT22;10263;48.716;8.760;2022-12-07T12:11:02;4.70;99.90
20208;DHT22;10263;48.716;8.760;2022-12-07T12:14:01;4.70;99.90
20208;DHT22;10263;48.716;8.760;2022-12-07T12:16:59;4.70;99.90
20208;DHT22;10263;48.716;8.760;2022-12-07T12:19:34;4.70;99.90
20208;DHT22;10263;48.716;8.760;2022-12-07T12:22:10;4.70;99.90
20208;DHT22;10263;48.716;8.760;2022-12-07T12:24:40;4.80;99.90
20208;DHT22;10263;48.716;8.760;2022-12-07T12:27:09;4.80;99.90
20208;DHT22;10263;48.716;8.760;2022-12-07T12:29:39;3.30;99.90
20208;DHT22;10263;48.716;8.760;2022-12-07T12:32:16;4.80;99.90
20208;DHT22;10263;48.716;8.760;2022-12-07T12:35:00;4.80;99.90
20208;DHT22;10263;48.716;8.760;2022-12-07T12:37:42;4.80;99.90
20208;DHT22;10263;48.716;8.760;2022-12-07T12:40:39;4.80;99.90
20208;DHT22;10263;48.716;8.760;2022-12-07T12:43:39;4.80;99.90
20208;DHT22;10263;48.716;8.760;2022-12-07T12:49:44;4.70;99.90
20208;DHT22;10263;48.716;8.760;2022-12-07T12:52:51;4.70;99.90
20208;DHT22;10263;48.716;8.760;2022-12-07T12:55:49;4.70;99.90
20208;DHT22;10263;48.716;8.760;2022-12-07T12:58:34;4.70;99.90
20208;DHT22;10263;48.716;8.760;2022-12-07T13:01:32;4.70;99.90
20208;DHT22;10263;48.716;8.760;2022-12-07T13:04:24;4.70;99.90
20208;DHT22;10263;48.716;8.760;2022-12-07T13:09:23;4.60;99.90
20208;DHT22;10263;48.716;8.760;2022-12-07T13:11:58;4.60;99.90
20208;DHT22;10263;48.716;8.760;2022-12-07T13:14:43;4.50;99.90
20208;DHT22;10263;48.716;8.760;2022-12-07T13:20:55;4.40;99.90
20208;DHT22;10263;48.716;8.760;2022-12-07T13:23:25;4.50;99.90
20208;DHT22;10263;48.716;8.760;2022-12-07T13:26:01;4.50;99.90
20208;DHT22;10263;48.716;8.760;2022-12-07T13:28:35;4.50;99.90
20208;DHT22;10263;48.716;8.760;2022-12-07T13:34:03;4.50;99.90
20208;DHT22;10263;48.716;8.760;2022-12-07T13:36:33;4.50;99.90
20208;DHT22;10263;48.716;8.760;2022-12-07T13:39:16;4.40;99.90
20208;DHT22;10263;48.716;8.760;2022-12-07T13:41:50;4.50;99.90
20208;DHT22;10263;48.716;8.760;2022-12-07T13:44:18;4.40;99.90
20208;DHT22;10263;48.716;8.760;2022-12-07T13:46:50;4.40;99.90
20208;DHT22;10263;48.716;8.760;2022-12-07T13:49:22;4.40;99.90
20208;DHT22;10263;48.716;8.760;2022-12-07T13:51:49;4.30;99.90
20208;DHT22;10263;48.716;8.760;2022-12-07T13:54:17;4.30;99.90
20208;DHT22;10263;48.716;8.760;2022-12-07T13:56:48;4.30;99.90
20208;DHT22;10263;48.716;8.760;2022-12-07T13:59:17;4.30;99.90
20208;DHT22;10263;48.716;8.760;2022-12-07T14:01:46;4.40;99.90
20208;DHT22;10263;48.716;8.760;2022-12-07T14:04:18;4.50;99.90
20208;DHT22;10263;48.716;8.760;2022-12-07T14:06:50;4.60;99.90
20208;DHT22;10263;48.716;8.760;2022-12-07T14:09:19;4.70;99.90
20208;DHT22;10263;48.716;8.760;2022-12-07T14:11:49;4.70;99.90
20208;DHT22;10263;48.716;8.760;2022-12-07T14:14:19;4.70;99.90
20208;DHT22;10263;48.716;8.760;2022-12-07T14:16:56;4.70;99.90
20208;DHT22;10263;48.716;8.760;2022-12-07T14:19:42;4.70;99.90
20208;DHT22;10263;48.716;8.760;2022-12-07T14:22:19;4.60;99.90
20208;DHT22;10263;48.716;8.760;2022-12-07T14:24:47;4.60;99.90
20208;DHT22;10263;48.716;8.760;2022-12-07T14:27:20;4.50;99.90
20208;DHT22;10263;48.716;8.760;2022-12-07T14:29:47;4.50;99.90
20208;DHT22;10263;48.716;8.760;2022-12-07T14:32:22;4.40;99.90
20208;DHT22;10263;48.716;8.760;2022-12-07T14:35:01;4.40;99.90
20208;DHT22;10263;48.716;8.760;2022-12-07T14:37:29;4.50;99.90
20208;DHT22;10263;48.716;8.760;2022-12-07T14:42:28;4.50;99.90
20208;DHT22;10263;48.716;8.760;2022-12-07T14:44:57;4.50;99.90
20208;DHT22;10263;48.716;8.760;2022-12-07T14:47:25;4.50;99.90
20208;DHT22;10263;48.716;8.760;2022-12-07T14:49:52;4.50;99.90
20208;DHT22;10263;48.716;8.760;2022-12-07T14:52:21;4.50;99.90
20208;DHT22;10263;48.716;8.760;2022-12-07T14:59:45;4.60;99.90
20208;DHT22;10263;48.716;8.760;2022-12-07T15:02:13;4.50;99.90
20208;DHT22;10263;48.716;8.760;2022-12-07T15:04:40;4.50;99.90
20208;DHT22;10263;48.716;8.760;2022-12-07T15:07:12;4.50;99.90
20208;DHT22;10263;48.716;8.760;2022-12-07T15:12:07;4.40;99.90
20208;DHT22;10263;48.716;8.760;2022-12-07T15:17:03;4.20;99.90
20208;DHT22;10263;48.716;8.760;2022-12-07T15:21:57;4.20;99.90
20208;DHT22;10263;48.716;8.760;2022-12-07T15:24:26;4.10;99.90
20208;DHT22;10263;48.716;8.760;2022-12-07T15:26:53;4.10;99.90
20208;DHT22;10263;48.716;8.760;2022-12-07T15:29:20;4.00;99.90
20208;DHT22;10263;48.716;8.760;2022-12-07T15:31:48;4.00;99.90
20208;DHT22;10263;48.716;8.760;2022-12-07T15:34:16;3.90;99.90
20208;DHT22;10263;48.716;8.760;2022-12-07T15:39:10;3.80;99.90
20208;DHT22;10263;48.716;8.760;2022-12-07T15:44:04;3.70;99.90
20208;DHT22;10263;48.716;8.760;2022-12-07T15:49:18;3.60;99.90
20208;DHT22;10263;48.716;8.760;2022-12-07T15:54:20;3.50;99.90
20208;DHT22;10263;48.716;8.760;2022-12-07T15:59:15;3.50;99.90
20208;DHT22;10263;48.716;8.760;2022-12-07T16:04:09;3.40;99.90
20208;DHT22;10263;48.716;8.760;2022-12-07T16:06:38;3.40;99.90
20208;DHT22;10263;48.716;8.760;2022-12-07T16:09:05;3.40;99.90
20208;DHT22;10263;48.716;8.760;2022-12-07T16:11:33;3.40;99.90
20208;DHT22;10263;48.716;8.760;2022-12-07T16:13:59;3.40;99.90
20208;DHT22;10263;48.716;8.760;2022-12-07T16:16:27;3.40;99.90
20208;DHT22;10263;48.716;8.760;2022-12-07T16:18:54;3.40;99.90
20208;DHT22;10263;48.716;8.760;2022-12-07T16:21:21;3.40;99.90
20208;DHT22;10263;48.716;8.760;2022-12-07T16:23:49;3.30;99.90
20208;DHT22;10263;48.716;8.760;2022-12-07T16:26:18;3.40;99.90
20208;DHT22;10263;48.716;8.760;2022-12-07T16:28:48;3.30;99.90
20208;DHT22;10263;48.716;8.760;2022-12-07T16:31:17;3.30;99.90
20208;DHT22;10263;48.716;8.760;2022-12-07T16:36:13;4.50;99.90
20208;DHT22;10263;48.716;8.760;2022-12-07T16:38:42;3.30;99.90
20208;DHT22;10263;48.716;8.760;2022-12-07T16:41:10;3.30;99.90
20208;DHT22;10263;48.716;8.760;2022-12-07T16:48:35;3.10;99.90
20208;DHT22;10263;48.716;8.760;2022-12-07T16:51:03;3.10;99.90
20208;DHT22;10263;48.716;8.760;2022-12-07T16:58:26;3.00;99.90
20208;DHT22;10263;48.716;8.760;2022-12-07T17:03:20;2.90;99.90
20208;DHT22;10263;48.716;8.760;2022-12-07T17:08:15;2.90;99.90
20208;DHT22;10263;48.716;8.760;2022-12-07T17:10:44;2.80;99.90
20208;DHT22;10263;48.716;8.760;2022-12-07T17:13:11;2.70;99.90
20208;DHT22;10263;48.716;8.760;2022-12-07T17:15:59;2.70;99.90
20208;DHT22;10263;48.716;8.760;2022-12-07T17:18:27;2.70;99.90
20208;DHT22;10263;48.716;8.760;2022-12-07T17:28:18;2.60;99.90
20208;DHT22;10263;48.716;8.760;2022-12-07T17:33:14;2.60;99.90
20208;DHT22;10263;48.716;8.760;2022-12-07T17:35:41;2.50;99.90
20208;DHT22;10263;48.716;8.760;2022-12-07T17:40:35;2.50;99.90
20208;DHT22;10263;48.716;8.760;2022-12-07T17:45:29;2.50;99.90
20208;DHT22;10263;48.716;8.760;2022-12-07T17:47:55;2.40;99.90
20208;DHT22;10263;48.716;8.760;2022-12-07T17:50:24;2.40;99.90
20208;DHT22;10263;48.716;8.760;2022-12-07T17:55:38;2.40;99.90
20208;DHT22;10263;48.716;8.760;2022-12-07T17:58:05;2.40;99.90
20208;DHT22;10263;48.716;8.760;2022-12-07T18:03:04;2.30;99.90
20208;DHT22;10263;48.716;8.760;2022-12-07T18:05:35;2.30;99.90
20208;DHT22;10263;48.716;8.760;2022-12-07T18:08:02;2.40;99.90
20208;DHT22;10263;48.716;8.760;2022-12-07T18:12:57;2.20;99.90
20208;DHT22;10263;48.716;8.760;2022-12-07T18:18:05;2.10;99.90
20208;DHT22;10263;48.716;8.760;2022-12-07T18:20:31;2.20;99.90
20208;DHT22;10263;48.716;8.760;2022-12-07T18:23:00;2.10;99.90
20208;DHT22;10263;48.716;8.760;2022-12-07T18:32:48;2.10;99.90
20208;DHT22;10263;48.716;8.760;2022-12-07T18:37:42;1.90;99.90
20208;DHT22;10263;48.716;8.760;2022-12-07T18:40:11;1.90;99.90
20208;DHT22;10263;48.716;8.760;2022-12-07T18:45:06;1.80;99.90
20208;DHT22;10263;48.716;8.760;2022-12-07T18:52:28;1.60;99.90
20208;DHT22;10263;48.716;8.760;2022-12-07T18:57:27;1.50;99.90
20208;DHT22;10263;48.716;8.760;2022-12-07T18:59:53;1.50;99.90
20208;DHT22;10263;48.716;8.760;2022-12-07T19:04:48;1.50;99.90
20208;DHT22;10263;48.716;8.760;2022-12-07T19:09:43;1.60;99.90
20208;DHT22;10263;48.716;8.760;2022-12-07T19:12:11;1.50;99.90
20208;DHT22;10263;48.716;8.760;2022-12-07T19:14:39;1.50;99.90
20208;DHT22;10263;48.716;8.760;2022-12-07T19:17:08;1.50;99.90
20208;DHT22;10263;48.716;8.760;2022-12-07T19:19:37;1.50;99.90
20208;DHT22;10263;48.716;8.760;2022-12-07T19:22:05;1.40;99.90
20208;DHT22;10263;48.716;8.760;2022-12-07T19:24:32;1.50;99.90
20208;DHT22;10263;48.716;8.760;2022-12-07T19:26:59;1.50;99.90
20208;DHT22;10263;48.716;8.760;2022-12-07T19:29:28;1.40;99.90
20208;DHT22;10263;48.716;8.760;2022-12-07T19:31:57;1.50;99.90
20208;DHT22;10263;48.716;8.760;2022-12-07T19:36:51;1.40;99.90
20208;DHT22;10263;48.716;8.760;2022-12-07T19:39:18;1.50;99.90
20208;DHT22;10263;48.716;8.760;2022-12-07T19:41:45;1.50;99.90
20208;DHT22;10263;48.716;8.760;2022-12-07T19:44:13;1.50;99.90
20208;DHT22;10263;48.716;8.760;2022-12-07T19:46:41;1.50;99.90
20208;DHT22;10263;48.716;8.760;2022-12-07T19:49:09;1.50;99.90
20208;DHT22;10263;48.716;8.760;2022-12-07T19:51:38;1.50;99.90
20208;DHT22;10263;48.716;8.760;2022-12-07T19:54:05;1.60;99.90
20208;DHT22;10263;48.716;8.760;2022-12-07T19:56:32;1.50;99.90
20208;DHT22;10263;48.716;8.760;2022-12-07T19:59:00;1.50;99.90
20208;DHT22;10263;48.716;8.760;2022-12-07T20:01:27;1.40;99.90
20208;DHT22;10263;48.716;8.760;2022-12-07T20:03:55;1.40;99.90
20208;DHT22;10263;48.716;8.760;2022-12-07T20:06:24;1.30;99.90
20208;DHT22;10263;48.716;8.760;2022-12-07T20:11:19;1.20;99.90
20208;DHT22;10263;48.716;8.760;2022-12-07T20:14:05;1.20;99.90
20208;DHT22;10263;48.716;8.760;2022-12-07T20:16:32;1.10;99.90
20208;DHT22;10263;48.716;8.760;2022-12-07T20:21:27;1.10;99.90
20208;DHT22;10263;48.716;8.760;2022-12-07T20:23:54;1.10;99.90
20208;DHT22;10263;48.716;8.760;2022-12-07T20:26:21;1.10;99.90
20208;DHT22;10263;48.716;8.760;2022-12-07T20:28:48;1.10;99.90
20208;DHT22;10263;48.716;8.760;2022-12-07T20:31:16;1.10;99.90
20208;DHT22;10263;48.716;8.760;2022-12-07T20:33:43;1.00;99.90
20208;DHT22;10263;48.716;8.760;2022-12-07T20:36:13;1.10;99.90
20208;DHT22;10263;48.716;8.760;2022-12-07T20:38:42;1.00;99.90
20208;DHT22;10263;48.716;8.760;2022-12-07T20:41:10;1.10;99.90
20208;DHT22;10263;48.716;8.760;2022-12-07T20:46:24;1.00;99.90
20208;DHT22;10263;48.716;8.760;2022-12-07T20:53:46;0.90;99.90
20208;DHT22;10263;48.716;8.760;2022-12-07T20:56:17;0.90;99.90
20208;DHT22;10263;48.716;8.760;2022-12-07T21:01:12;0.80;99.90
20208;DHT22;10263;48.716;8.760;2022-12-07T21:03:38;0.80;99.90
20208;DHT22;10263;48.716;8.760;2022-12-07T21:06:06;0.80;99.90
20208;DHT22;10263;48.716;8.760;2022-12-07T21:08:33;0.80;99.90
20208;DHT22;10263;48.716;8.760;2022-12-07T21:11:07;0.80;99.90
20208;DHT22;10263;48.716;8.760;2022-12-07T21:13:34;0.70;99.90
20208;DHT22;10263;48.716;8.760;2022-12-07T21:16:06;0.80;99.90
20208;DHT22;10263;48.716;8.760;2022-12-07T21:18:33;0.80;99.90
20208;DHT22;10263;48.716;8.760;2022-12-07T21:21:00;0.90;99.90
20208;DHT22;10263;48.716;8.760;2022-12-07T21:23:27;0.90;99.90
20208;DHT22;10263;48.716;8.760;2022-12-07T21:28:23;0.90;99.90
20208;DHT22;10263;48.716;8.760;2022-12-07T21:30:49;0.90;99.90
20208;DHT22;10263;48.716;8.760;2022-12-07T21:35:43;0.90;99.90